createdAt,value
2019-04-26T00:02:12.439Z,12.70
2019-04-26T00:04:41.071Z,12.60
2019-04-26T00:07:10.434Z,12.40
2019-04-26T00:09:40.582Z,12.30
2019-04-26T00:12:16.999Z,12.20
2019-04-26T00:14:59.616Z,12.10
2019-04-26T00:17:30.234Z,11.90
2019-04-26T00:19:59.254Z,11.80
2019-04-26T00:22:28.026Z,11.70
2019-04-26T00:24:56.715Z,11.50
2019-04-26T00:27:25.362Z,11.50
2019-04-26T00:29:53.976Z,11.50
2019-04-26T00:32:22.754Z,11.40
2019-04-26T00:34:51.359Z,11.30
2019-04-26T00:37:20.221Z,11.20
2019-04-26T00:39:49.005Z,11.10
2019-04-26T00:42:18.587Z,11.20
2019-04-26T00:44:47.545Z,11.30
2019-04-26T00:47:19.002Z,11.60
2019-04-26T00:49:47.783Z,11.90
2019-04-26T00:52:17.413Z,12.10
2019-04-26T00:54:46.548Z,12.00
2019-04-26T00:57:18.123Z,11.90
2019-04-26T00:59:48.656Z,11.80
2019-04-26T01:02:19.177Z,11.50
2019-04-26T01:04:47.701Z,11.40
2019-04-26T01:07:16.982Z,11.20
2019-04-26T01:09:45.652Z,10.90
2019-04-26T01:12:15.426Z,10.60
2019-04-26T01:14:44.495Z,10.40
2019-04-26T01:17:13.035Z,10.30
2019-04-26T01:19:43.129Z,10.40
2019-04-26T01:22:14.736Z,10.40
2019-04-26T01:24:46.379Z,10.30
2019-04-26T01:27:18.536Z,10.10
2019-04-26T01:29:51.409Z,9.90
2019-04-26T01:32:22.088Z,9.80
2019-04-26T01:37:40.961Z,9.70
2019-04-26T01:40:11.370Z,9.50
2019-04-26T01:43:01.174Z,9.50
2019-04-26T01:45:48.265Z,9.40
2019-04-26T01:48:37.967Z,9.30
2019-04-26T01:51:07.466Z,9.30
2019-04-26T01:53:36.553Z,9.30
2019-04-26T01:56:05.216Z,9.30
2019-04-26T01:58:34.040Z,9.30
2019-04-26T02:01:07.461Z,9.30
2019-04-26T02:03:36.135Z,9.30
2019-04-26T02:06:05.184Z,9.10
2019-04-26T02:08:33.717Z,9.00
2019-04-26T02:11:02.512Z,8.90
2019-04-26T02:13:31.271Z,8.90
2019-04-26T02:15:59.960Z,8.90
2019-04-26T02:18:29.393Z,8.90
2019-04-26T02:21:03.205Z,9.00
2019-04-26T02:23:34.352Z,9.00
2019-04-26T02:26:21.423Z,9.10
2019-04-26T02:28:50.773Z,9.20
2019-04-26T02:31:20.132Z,9.20
2019-04-26T02:33:49.912Z,9.20
2019-04-26T02:36:19.862Z,9.10
2019-04-26T02:38:48.758Z,8.90
2019-04-26T02:41:17.693Z,8.80
2019-04-26T02:43:49.413Z,8.70
2019-04-26T02:46:22.765Z,8.50
2019-04-26T02:49:11.039Z,8.50
2019-04-26T02:51:42.767Z,8.40
2019-04-26T02:54:46.685Z,8.40
2019-04-26T02:57:18.396Z,8.40
2019-04-26T02:59:48.557Z,8.50
2019-04-26T03:02:24.317Z,8.50
2019-04-26T03:04:55.530Z,8.50
2019-04-26T03:07:37.313Z,8.40
2019-04-26T03:10:08.557Z,8.60
2019-04-26T03:12:39.532Z,8.70
2019-04-26T03:15:14.247Z,8.70
2019-04-26T03:17:47.328Z,8.80
2019-04-26T03:20:20.693Z,8.80
2019-04-26T03:22:52.367Z,8.80
2019-04-26T03:25:26.933Z,8.80
2019-04-26T03:28:07.853Z,8.90
2019-04-26T03:30:51.093Z,9.20
2019-04-26T03:33:27.553Z,9.30
2019-04-26T03:36:01.137Z,9.20
2019-04-26T03:38:55.797Z,9.30
2019-04-26T03:41:34.297Z,9.40
2019-04-26T03:44:13.888Z,9.40
2019-04-26T03:46:48.323Z,9.40
2019-04-26T03:49:36.151Z,9.60
2019-04-26T03:52:07.959Z,9.70
2019-04-26T03:54:39.735Z,9.90
2019-04-26T03:57:19.467Z,10.00
2019-04-26T03:59:55.496Z,9.90
2019-04-26T04:02:41.493Z,10.10
2019-04-26T04:05:18.005Z,10.00
2019-04-26T04:07:51.451Z,10.10
2019-04-26T04:10:41.488Z,10.20
2019-04-26T04:13:40.867Z,10.20
2019-04-26T04:16:24.521Z,10.10
2019-04-26T04:19:05.017Z,9.70
2019-04-26T04:21:45.106Z,9.50
2019-04-26T04:24:17.291Z,9.20
2019-04-26T04:26:54.644Z,9.20
2019-04-26T04:29:56.709Z,9.10
2019-04-26T04:32:31.150Z,9.20
2019-04-26T04:35:06.281Z,9.40
2019-04-26T04:37:52.663Z,9.60
2019-04-26T04:40:44.815Z,9.70
2019-04-26T04:43:30.144Z,9.60
2019-04-26T04:46:12.209Z,9.60
2019-04-26T04:48:56.988Z,9.50
2019-04-26T04:51:44.883Z,9.40
2019-04-26T04:54:19.442Z,9.30
2019-04-26T04:56:57.331Z,9.40
2019-04-26T04:59:31.727Z,9.60
2019-04-26T05:02:23.332Z,9.80
2019-04-26T05:05:22.159Z,9.80
2019-04-26T05:08:20.847Z,9.50
2019-04-26T05:11:04.623Z,9.70
2019-04-26T05:13:55.936Z,9.60
2019-04-26T05:16:54.749Z,9.80
2019-04-26T05:19:35.366Z,9.80
2019-04-26T05:22:25.009Z,9.90
2019-04-26T05:25:14.014Z,9.70
2019-04-26T05:27:53.091Z,9.60
2019-04-26T05:30:29.299Z,9.60
2019-04-26T05:33:03.477Z,9.60
2019-04-26T05:35:53.484Z,9.70
2019-04-26T05:38:40.202Z,9.70
2019-04-26T05:41:42.328Z,9.70
2019-04-26T05:44:33.710Z,9.80
2019-04-26T05:47:12.826Z,9.90
2019-04-26T05:50:17.952Z,9.80
2019-04-26T05:52:57.343Z,9.90
2019-04-26T05:55:48.187Z,10.00
2019-04-26T05:58:34.713Z,10.00
2019-04-26T06:01:39.553Z,10.10
2019-04-26T06:04:21.499Z,10.20
2019-04-26T06:07:03.503Z,10.30
2019-04-26T06:09:45.267Z,10.30
2019-04-26T06:12:36.407Z,10.30
2019-04-26T06:15:21.584Z,10.30
2019-04-26T06:18:16.018Z,10.40
2019-04-26T06:20:57.296Z,10.50
2019-04-26T06:23:28.984Z,10.50
2019-04-26T06:26:36.870Z,10.60
2019-04-26T06:29:17.335Z,10.70
2019-04-26T06:31:51.900Z,10.60
2019-04-26T06:34:35.599Z,10.60
2019-04-26T06:37:11.871Z,10.60
2019-04-26T06:39:43.429Z,10.70
2019-04-26T06:42:24.179Z,10.80
2019-04-26T06:45:09.103Z,10.80
2019-04-26T06:47:42.399Z,10.80
2019-04-26T06:50:21.171Z,10.80
2019-04-26T06:53:04.607Z,10.90
2019-04-26T06:55:43.879Z,10.90
2019-04-26T06:58:17.303Z,11.00
2019-04-26T07:01:01.635Z,11.10
2019-04-26T07:03:36.171Z,11.30
2019-04-26T07:06:07.796Z,11.40
2019-04-26T07:08:42.583Z,11.30
2019-04-26T07:11:37.266Z,11.40
2019-04-26T07:14:25.370Z,11.30
2019-04-26T07:16:58.046Z,11.50
2019-04-26T07:19:50.763Z,11.60
2019-04-26T07:22:35.639Z,11.60
2019-04-26T07:25:14.108Z,11.70
2019-04-26T07:27:48.677Z,11.60
2019-04-26T07:30:49.864Z,11.60
2019-04-26T07:33:34.441Z,11.60
2019-04-26T07:36:09.823Z,11.60
2019-04-26T07:39:19.262Z,11.60
2019-04-26T07:42:07.807Z,11.60
2019-04-26T07:45:21.916Z,11.60
2019-04-26T07:48:14.652Z,11.70
2019-04-26T07:51:03.411Z,11.60
2019-04-26T07:53:50.939Z,11.60
2019-04-26T07:56:45.011Z,11.70
2019-04-26T07:59:41.835Z,11.80
2019-04-26T08:02:24.067Z,11.80
2019-04-26T08:05:11.463Z,11.80
2019-04-26T08:07:43.156Z,11.80
2019-04-26T08:10:18.146Z,11.90
2019-04-26T08:12:49.757Z,12.00
2019-04-26T08:15:39.374Z,11.90
2019-04-26T08:18:24.551Z,11.90
2019-04-26T08:20:56.880Z,12.00
2019-04-26T08:23:42.101Z,12.00
2019-04-26T08:26:07.686Z,12.00
2019-04-26T08:28:39.357Z,12.10
2019-04-26T08:31:11.097Z,11.90
2019-04-26T08:33:48.476Z,11.80
2019-04-26T08:36:17.689Z,11.80
2019-04-26T08:38:48.903Z,11.80
2019-04-26T08:41:22.678Z,11.80
2019-04-26T08:44:11.644Z,11.60
2019-04-26T08:46:46.748Z,11.60
2019-04-26T08:49:26.876Z,11.50
2019-04-26T08:51:58.800Z,11.50
2019-04-26T08:54:32.641Z,11.40
2019-04-26T08:57:07.019Z,11.30
2019-04-26T08:59:38.642Z,11.20
2019-04-26T09:02:29.868Z,11.10
2019-04-26T09:05:19.318Z,11.20
2019-04-26T09:07:53.452Z,11.20
2019-04-26T09:10:24.525Z,11.20
2019-04-26T09:12:55.471Z,11.30
2019-04-26T09:15:44.031Z,11.30
2019-04-26T09:18:12.609Z,11.30
2019-04-26T09:20:42.934Z,11.20
2019-04-26T09:23:39.578Z,11.20
2019-04-26T09:26:08.598Z,11.20
2019-04-26T09:28:56.594Z,11.20
2019-04-26T09:31:27.678Z,11.00
2019-04-26T09:34:10.479Z,10.90
2019-04-26T09:36:40.110Z,11.00
2019-04-26T09:39:10.424Z,10.90
2019-04-26T09:41:39.058Z,10.90
2019-04-26T09:44:18.154Z,10.90
2019-04-26T09:46:54.483Z,10.90
2019-04-26T09:49:33.269Z,11.00
2019-04-26T09:52:02.955Z,11.10
2019-04-26T09:54:31.533Z,11.10
2019-04-26T09:57:00.088Z,11.10
2019-04-26T09:59:28.627Z,11.10
2019-04-26T10:01:59.352Z,11.20
2019-04-26T10:04:27.503Z,11.20
2019-04-26T10:06:59.502Z,11.20
2019-04-26T10:09:26.391Z,11.20
2019-04-26T10:11:56.647Z,11.20
2019-04-26T10:14:43.163Z,11.30
2019-04-26T10:17:15.786Z,11.40
2019-04-26T10:19:45.283Z,11.50
2019-04-26T10:22:13.889Z,11.60
2019-04-26T10:24:42.455Z,11.70
2019-04-26T10:27:11.151Z,11.80
2019-04-26T10:29:39.782Z,11.80
2019-04-26T10:32:08.525Z,11.90
2019-04-26T10:34:37.170Z,12.00
2019-04-26T10:37:06.518Z,12.10
2019-04-26T10:39:36.987Z,12.10
2019-04-26T10:42:06.105Z,11.90
2019-04-26T10:44:35.858Z,12.00
2019-04-26T10:47:06.093Z,11.90
2019-04-26T10:49:47.879Z,11.70
2019-04-26T10:52:35.511Z,11.70
2019-04-26T10:55:16.027Z,11.80
2019-04-26T10:57:48.891Z,11.60
2019-04-26T11:00:28.737Z,11.50
2019-04-26T11:03:00.017Z,11.50
2019-04-26T11:05:27.691Z,11.40
2019-04-26T11:07:56.295Z,11.40
2019-04-26T11:10:24.947Z,11.20
2019-04-26T11:12:53.577Z,11.20
2019-04-26T11:15:22.193Z,11.20
2019-04-26T11:17:51.135Z,11.10
2019-04-26T11:20:19.804Z,11.20
2019-04-26T11:22:48.473Z,11.10
2019-04-26T11:25:17.179Z,11.10
2019-04-26T11:27:48.570Z,10.90
2019-04-26T11:30:20.789Z,10.80
2019-04-26T11:32:46.541Z,10.80
2019-04-26T11:35:15.253Z,10.80
2019-04-26T11:37:46.218Z,10.70
2019-04-26T11:40:15.648Z,10.70
2019-04-26T11:42:45.678Z,10.50
2019-04-26T11:45:16.220Z,10.30
2019-04-26T11:47:55.398Z,10.20
2019-04-26T11:50:16.091Z,10.10
2019-04-26T11:52:45.276Z,10.00
2019-04-26T11:55:14.966Z,9.80
2019-04-26T11:57:47.386Z,9.60
2019-04-26T12:00:16.126Z,9.50
2019-04-26T12:02:46.335Z,9.40
2019-04-26T12:05:16.729Z,9.50
2019-04-26T12:07:49.971Z,9.50
2019-04-26T12:10:18.582Z,9.30
2019-04-26T12:12:51.590Z,9.30
2019-04-26T12:15:29.765Z,9.50
2019-04-26T12:17:58.071Z,9.50
2019-04-26T12:20:17.856Z,9.50
2019-04-26T12:22:46.372Z,9.50
2019-04-26T12:25:16.004Z,9.40
2019-04-26T12:27:44.850Z,9.50
2019-04-26T12:30:13.734Z,9.50
2019-04-26T12:32:42.344Z,9.70
2019-04-26T12:35:11.203Z,9.90
2019-04-26T12:37:39.812Z,9.90
2019-04-26T12:40:11.296Z,9.90
2019-04-26T12:42:43.374Z,9.80
2019-04-26T12:45:21.340Z,9.80
2019-04-26T12:47:54.553Z,9.90
2019-04-26T12:50:23.318Z,9.60
2019-04-26T12:52:55.683Z,9.50
2019-04-26T12:55:22.428Z,9.40
2019-04-26T12:57:51.069Z,9.30
2019-04-26T13:00:21.611Z,9.20
2019-04-26T13:02:53.974Z,9.20
2019-04-26T13:05:20.655Z,9.20
2019-04-26T13:07:53.291Z,8.90
2019-04-26T13:10:38.511Z,8.80
2019-04-26T13:13:20.657Z,8.60
2019-04-26T13:15:54.160Z,8.40
2019-04-26T13:18:22.734Z,8.30
2019-04-26T13:20:51.262Z,8.50
2019-04-26T13:23:19.891Z,8.40
2019-04-26T13:25:48.447Z,8.30
2019-04-26T13:28:20.191Z,8.50
2019-04-26T13:30:47.412Z,8.50
2019-04-26T13:33:16.019Z,8.40
2019-04-26T13:35:46.688Z,8.30
2019-04-26T13:38:14.916Z,8.20
2019-04-26T13:40:43.541Z,8.20
2019-04-26T13:43:12.155Z,8.10
2019-04-26T13:45:42.516Z,8.00
2019-04-26T13:48:30.792Z,8.00
2019-04-26T13:51:12.631Z,8.10
2019-04-26T13:53:41.239Z,8.10
2019-04-26T13:56:09.838Z,8.10
2019-04-26T13:58:38.479Z,8.10
2019-04-26T14:01:07.530Z,8.20
2019-04-26T14:03:36.247Z,8.10
2019-04-26T14:06:04.921Z,7.90
2019-04-26T14:08:33.490Z,7.90
2019-04-26T14:11:02.035Z,8.00
2019-04-26T14:13:30.743Z,7.80
2019-04-26T14:15:59.353Z,7.70
2019-04-26T14:18:28.117Z,7.70
2019-04-26T14:20:58.993Z,7.70
2019-04-26T14:23:40.787Z,7.60
2019-04-26T14:26:11.067Z,7.60
2019-04-26T14:28:42.033Z,7.50
2019-04-26T14:31:12.195Z,7.60
2019-04-26T14:33:40.362Z,7.60
2019-04-26T14:36:17.667Z,7.30
2019-04-26T14:38:39.870Z,7.30
2019-04-26T14:41:13.456Z,7.40
2019-04-26T14:43:42.772Z,7.30
2019-04-26T14:46:14.563Z,7.40
2019-04-26T14:48:44.664Z,7.50
2019-04-26T14:51:12.411Z,7.60
2019-04-26T14:53:42.019Z,7.70
2019-04-26T14:56:10.640Z,7.70
2019-04-26T14:58:39.176Z,7.40
2019-04-26T15:01:09.919Z,7.40
2019-04-26T15:03:58.353Z,7.40
2019-04-26T15:06:32.210Z,7.50
2019-04-26T15:09:00.780Z,7.50
2019-04-26T15:11:32.238Z,7.60
2019-04-26T15:13:59.531Z,7.70
2019-04-26T15:16:28.236Z,7.60
2019-04-26T15:18:56.772Z,7.50
2019-04-26T15:21:27.362Z,7.50
2019-04-26T15:23:59.415Z,7.50
2019-04-26T15:26:29.726Z,7.40
2019-04-26T15:28:56.006Z,7.30
2019-04-26T15:31:25.120Z,7.40
2019-04-26T15:33:53.724Z,7.50
2019-04-26T15:36:23.246Z,7.60
2019-04-26T15:38:52.875Z,7.70
2019-04-26T15:41:26.028Z,7.80
2019-04-26T15:44:02.733Z,7.80
2019-04-26T15:46:49.911Z,7.80
2019-04-26T15:49:29.395Z,7.70
2019-04-26T15:51:59.748Z,7.80
2019-04-26T15:54:27.037Z,7.80
2019-04-26T15:56:55.914Z,7.80
2019-04-26T15:59:25.468Z,7.70
2019-04-26T16:01:56.214Z,7.80
2019-04-26T16:04:24.799Z,7.80
2019-04-26T16:06:53.333Z,7.60
2019-04-26T16:09:23.009Z,7.50
2019-04-26T16:11:53.120Z,7.40
2019-04-26T16:14:24.944Z,7.30
2019-04-26T16:16:52.548Z,7.30
2019-04-26T16:19:21.171Z,7.30
2019-04-26T16:21:52.771Z,7.30
2019-04-26T16:24:19.976Z,7.40
2019-04-26T16:26:54.059Z,7.60
2019-04-26T16:29:24.476Z,7.60
2019-04-26T16:32:12.457Z,7.70
2019-04-26T16:34:47.644Z,7.70
2019-04-26T16:37:21.766Z,7.80
2019-04-26T16:39:48.522Z,8.00
2019-04-26T16:42:16.307Z,8.10
2019-04-26T16:44:45.178Z,8.10
2019-04-26T16:47:13.895Z,8.20
2019-04-26T16:49:46.167Z,8.20
2019-04-26T16:52:13.975Z,8.10
2019-04-26T16:54:42.753Z,8.00
2019-04-26T16:57:12.433Z,7.90
2019-04-26T16:59:49.069Z,7.90
2019-04-26T17:02:13.341Z,7.80
2019-04-26T17:04:43.411Z,8.00
2019-04-26T17:07:13.307Z,7.90
2019-04-26T17:09:57.118Z,7.90
2019-04-26T17:12:14.989Z,8.00
2019-04-26T17:14:47.495Z,8.10
2019-04-26T17:17:14.238Z,8.00
2019-04-26T17:19:43.305Z,7.90
2019-04-26T17:22:25.711Z,7.90
2019-04-26T17:24:58.631Z,7.90
2019-04-26T17:27:27.269Z,8.10
2019-04-26T17:29:55.877Z,8.00
2019-04-26T17:32:24.516Z,8.00
2019-04-26T17:34:54.567Z,7.90
2019-04-26T17:37:26.504Z,7.80
2019-04-26T17:39:55.408Z,7.80
2019-04-26T17:42:25.280Z,7.70
2019-04-26T17:44:57.600Z,7.50
2019-04-26T17:47:24.267Z,7.50
2019-04-26T17:49:52.875Z,7.60
2019-04-26T17:52:21.520Z,7.70
2019-04-26T17:54:51.933Z,7.50
2019-04-26T17:57:31.994Z,7.40
2019-04-26T17:59:51.527Z,7.30
2019-04-26T18:02:38.759Z,7.20
2019-04-26T18:05:00.191Z,7.10
2019-04-26T18:07:39.741Z,7.10
2019-04-26T18:09:52.557Z,7.10
2019-04-26T18:12:21.265Z,7.10
2019-04-26T18:14:49.822Z,7.10
2019-04-26T18:17:23.198Z,6.90
2019-04-26T18:20:13.012Z,6.80
2019-04-26T18:22:43.270Z,6.60
2019-04-26T18:25:13.003Z,6.60
2019-04-26T18:27:43.525Z,6.50
2019-04-26T18:30:14.271Z,6.50
2019-04-26T18:32:47.553Z,6.50
2019-04-26T18:35:16.637Z,6.50
2019-04-26T18:37:43.474Z,6.50
2019-04-26T18:40:12.260Z,6.50
2019-04-26T18:42:41.934Z,6.50
2019-04-26T18:45:11.004Z,6.40
2019-04-26T18:47:41.202Z,6.40
2019-04-26T18:50:10.581Z,6.40
2019-04-26T18:52:40.922Z,6.30
2019-04-26T18:55:17.005Z,6.30
2019-04-26T18:57:47.387Z,6.20
2019-04-26T19:00:21.507Z,6.20
2019-04-26T19:02:48.392Z,6.10
2019-04-26T19:05:19.537Z,6.00
2019-04-26T19:07:50.216Z,5.90
2019-04-26T19:10:19.148Z,5.90
2019-04-26T19:12:48.867Z,6.00
2019-04-26T19:15:19.036Z,5.90
2019-04-26T19:17:49.347Z,5.90
2019-04-26T19:20:32.324Z,5.80
2019-04-26T19:23:02.995Z,5.80
2019-04-26T19:25:35.645Z,5.90
2019-04-26T19:28:04.469Z,5.90
2019-04-26T19:30:32.370Z,5.90
2019-04-26T19:33:02.077Z,5.90
2019-04-26T19:35:32.805Z,5.90
2019-04-26T19:38:01.110Z,6.00
2019-04-26T19:40:29.800Z,6.00
2019-04-26T19:43:03.196Z,6.00
2019-04-26T19:45:39.579Z,6.00
2019-04-26T19:48:07.789Z,6.00
2019-04-26T19:50:56.085Z,5.90
2019-04-26T19:53:38.307Z,5.90
2019-04-26T19:56:11.558Z,5.90
2019-04-26T19:58:45.845Z,6.00
2019-04-26T20:01:16.529Z,5.90
2019-04-26T20:03:47.359Z,5.90
2019-04-26T20:06:18.794Z,6.00
2019-04-26T20:08:47.952Z,6.10
2019-04-26T20:11:18.706Z,6.30
2019-04-26T20:13:46.821Z,6.40
2019-04-26T20:16:15.704Z,6.50
2019-04-26T20:18:44.299Z,6.60
2019-04-26T20:21:15.319Z,6.70
2019-04-26T20:23:47.202Z,6.60
2019-04-26T20:26:13.579Z,6.70
2019-04-26T20:28:42.363Z,6.70
2019-04-26T20:31:23.078Z,6.90
2019-04-26T20:33:51.875Z,7.00
2019-04-26T20:36:21.648Z,7.00
2019-04-26T20:38:52.086Z,7.00
2019-04-26T20:41:22.043Z,6.90
2019-04-26T20:44:04.445Z,6.80
2019-04-26T20:46:24.342Z,6.80
2019-04-26T20:48:52.000Z,6.80
2019-04-26T20:51:22.482Z,6.90
2019-04-26T20:53:51.016Z,6.90
2019-04-26T20:56:19.540Z,6.80
2019-04-26T20:58:48.175Z,6.90
2019-04-26T21:01:17.167Z,6.80
2019-04-26T21:03:46.325Z,6.70
2019-04-26T21:06:14.983Z,6.50
2019-04-26T21:08:43.644Z,6.40
2019-04-26T21:11:13.628Z,6.30
2019-04-26T21:13:42.463Z,6.30
2019-04-26T21:16:15.262Z,6.20
2019-04-26T21:18:44.091Z,6.10
2019-04-26T21:21:12.037Z,6.10
2019-04-26T21:23:42.239Z,6.00
2019-04-26T21:26:16.441Z,6.00
2019-04-26T21:29:03.626Z,6.00
2019-04-26T21:31:53.451Z,6.10
2019-04-26T21:34:23.708Z,6.10
2019-04-26T21:37:11.354Z,6.10
2019-04-26T21:40:05.587Z,6.00
2019-04-26T21:42:34.332Z,6.00
2019-04-26T21:45:03.518Z,5.90
2019-04-26T21:47:33.091Z,6.00
2019-04-26T21:50:04.118Z,5.90
2019-04-26T21:52:34.198Z,5.80
2019-04-26T21:55:04.853Z,5.80
2019-04-26T21:57:34.886Z,5.80
2019-04-26T22:00:06.711Z,5.70
2019-04-26T22:02:37.455Z,5.70
2019-04-26T22:05:08.027Z,5.70
2019-04-26T22:07:39.548Z,5.60
2019-04-26T22:10:20.686Z,5.60
2019-04-26T22:12:49.211Z,5.60
2019-04-26T22:15:29.536Z,5.70
2019-04-26T22:17:57.563Z,5.60
2019-04-26T22:20:30.592Z,5.50
2019-04-26T22:23:11.588Z,5.60
2019-04-26T22:25:41.966Z,5.60
2019-04-26T22:28:10.499Z,5.60
2019-04-26T22:30:39.097Z,5.50
2019-04-26T22:33:07.744Z,5.50
2019-04-26T22:35:36.519Z,5.40
2019-04-26T22:38:05.210Z,5.40
2019-04-26T22:40:33.810Z,5.50
2019-04-26T22:43:20.028Z,5.40
2019-04-26T22:45:47.683Z,5.40
2019-04-26T22:48:29.673Z,5.30
2019-04-26T22:50:59.513Z,5.30
2019-04-26T22:53:28.252Z,5.30
2019-04-26T22:55:57.730Z,5.30
2019-04-26T22:58:28.796Z,5.20
2019-04-26T23:00:58.437Z,5.20
2019-04-26T23:03:28.327Z,5.30
2019-04-26T23:05:56.882Z,5.30
2019-04-26T23:08:25.414Z,5.30
2019-04-26T23:10:55.611Z,5.30
2019-04-26T23:13:37.730Z,5.30
2019-04-26T23:16:11.166Z,5.40
2019-04-26T23:18:43.776Z,5.40
2019-04-26T23:21:28.660Z,5.40
2019-04-26T23:23:57.262Z,5.30
2019-04-26T23:26:25.895Z,5.20
2019-04-26T23:28:54.428Z,5.20
2019-04-26T23:31:23.705Z,5.10
2019-04-26T23:33:53.849Z,5.10
2019-04-26T23:36:24.075Z,5.10
2019-04-26T23:38:53.159Z,5.10
2019-04-26T23:41:23.631Z,5.00
2019-04-26T23:43:56.535Z,5.00
2019-04-26T23:46:25.698Z,5.00
2019-04-26T23:48:53.864Z,5.00
2019-04-26T23:51:23.803Z,5.00
2019-04-26T23:53:56.353Z,5.00
2019-04-26T23:56:25.304Z,5.00
2019-04-26T23:58:53.232Z,5.00
